Time;durP1;ratioP1;P1;durP2;ratioP2;P2;SDS_P1;SDS_P2;PMS_P1;PMS_P2;Temp;Humidity;BMP_temperature;BMP_pressure;BME280_temperature;BME280_humidity;BME280_pressure;Samples;Min_cycle;Max_cycle;Signal;HPM_P1;HPM_P2
2020/12/15 00:00:24;;;;;;;32.23;26.07;;;;;;;;;;4594259;28;21005;-75
2020/12/15 00:02:45;;;;;;;31.10;25.07;;;;;;;;;;4595441;28;20972;-75
2020/12/15 00:05:01;;;;;;;31.10;25.13;;;;;;;;;;4594713;28;20490;-73
2020/12/15 00:07:17;;;;;;;31.03;24.10;;;;;;;;;;4594776;28;20845;-76
2020/12/15 00:09:33;;;;;;;28.47;24.57;;;;;;;;;;4595637;28;20443;-76
2020/12/15 00:11:49;;;;;;;33.30;26.37;;;8.40;83.80;;;;;;4594991;28;20490;-75
2020/12/15 00:14:04;;;;;;;28.70;23.17;;;;;;;;;;4594834;28;20431;-75
2020/12/15 00:16:21;;;;;;;27.93;23.27;;;;;;;;;;4591921;28;20518;-75
2020/12/15 00:18:36;;;;;;;26.00;22.43;;;5.30;81.30;;;;;;4593523;28;20444;-75
2020/12/15 00:20:53;;;;;;;24.30;21.17;;;;;;;;;;4593073;28;20440;-75
2020/12/15 00:23:09;;;;;;;29.37;23.67;;;;;;;;;;4593107;28;20440;-76
2020/12/15 00:25:24;;;;;;;29.13;23.20;;;6.70;82.60;;;;;;4593673;28;20450;-76
2020/12/15 00:27:42;;;;;;;30.77;24.70;;;;;;;;;;4593746;28;20476;-76
2020/12/15 00:29:58;;;;;;;30.83;25.50;;;7.00;82.00;;;;;;4592057;28;20458;-75
2020/12/15 00:32:15;;;;;;;33.10;26.53;;;5.40;76.20;;;;;;4594536;28;20506;-75
2020/12/15 00:34:31;;;;;;;29.67;24.70;;;;;;;;;;4593519;28;20455;-75
2020/12/15 00:36:50;;;;;;;30.40;25.70;;;;;;;;;;4593770;28;20471;-75
2020/12/15 00:39:06;;;;;;;30.53;25.00;;;5.70;82.10;;;;;;4594025;28;20455;-74
2020/12/15 00:41:22;;;;;;;32.73;25.83;;;;;;;;;;4592686;28;20456;-75
2020/12/15 00:43:37;;;;;;;32.40;26.70;;;7.00;82.70;;;;;;4594335;28;20494;-75
2020/12/15 00:45:53;;;;;;;31.73;26.33;;;6.00;82.00;;;;;;4593547;28;20444;-75
2020/12/15 00:48:09;;;;;;;30.93;25.53;;;5.30;76.40;;;;;;4593953;28;20451;-75
2020/12/15 00:50:25;;;;;;;32.20;25.83;;;;;;;;;;4591964;28;20440;-75
2020/12/15 00:52:40;;;;;;;31.87;26.10;;;5.50;82.70;;;;;;4592463;28;20448;-75
2020/12/15 00:54:57;;;;;;;31.30;24.90;;;;;;;;;;4593490;28;20530;-75
2020/12/15 00:57:13;;;;;;;29.83;24.53;;;;;;;;;;4592730;28;20450;-74
2020/12/15 00:59:29;;;;;;;29.70;23.77;;;;;;;;;;4593303;28;20444;-76
2020/12/15 01:01:47;;;;;;;31.03;25.97;;;;;;;;;;4593172;28;20432;-74
2020/12/15 01:04:06;;;;;;;34.97;27.23;;;5.60;82.10;;;;;;4591670;28;20455;-75
2020/12/15 01:06:23;;;;;;;33.37;25.53;;;;;;;;;;4594008;28;20476;-75
2020/12/15 01:08:43;;;;;;;33.10;24.87;;;;;;;;;;4591435;28;20467;-75
2020/12/15 01:11:05;;;;;;;30.80;25.80;;;5.60;82.10;;;;;;4576008;28;20935;-76
2020/12/15 01:13:23;;;;;;;34.90;26.40;;;;;;;;;;4592022;28;20471;-76
2020/12/15 01:15:40;;;;;;;40.23;29.87;;;;;;;;;;4592383;28;20498;-76
2020/12/15 01:17:58;;;;;;;40.90;30.90;;;;;;;;;;4571111;28;626973;-75
2020/12/15 01:20:29;;;;;;;42.80;30.33;;;5.00;76.70;;;;;;4593075;28;20502;-76
2020/12/15 01:22:46;;;;;;;39.33;30.40;;;;;;;;;;4594719;28;20440;-76
2020/12/15 01:25:14;;;;;;;41.00;30.57;;;;;;;;;;4592481;28;20482;-75
2020/12/15 01:27:39;;;;;;;38.70;29.47;;;;;;;;;;4593483;28;20559;-77
2020/12/15 01:30:04;;;;;;;40.30;29.80;;;;;;;;;;4593444;28;20436;-76
2020/12/15 01:32:38;;;;;;;46.43;31.57;;;;;;;;;;4594384;28;20549;-76
2020/12/15 01:34:55;;;;;;;48.07;34.13;;;;;;;;;;4593742;28;20448;-75
2020/12/15 01:37:11;;;;;;;44.00;32.53;;;;;;;;;;4594192;28;20448;-76
2020/12/15 01:39:27;;;;;;;46.20;32.53;;;;;;;;;;4591979;28;20463;-76
2020/12/15 01:41:52;;;;;;;49.70;34.40;;;;;;;;;;4592168;28;20515;-76
2020/12/15 01:44:09;;;;;;;49.00;35.13;;;6.00;82.70;;;;;;4593834;28;20452;-76
2020/12/15 01:46:31;;;;;;;46.70;33.57;;;;;;;;;;4592187;28;20468;-75
2020/12/15 01:48:47;;;;;;;48.53;33.50;;;;;;;;;;4593730;28;20856;-76
2020/12/15 01:51:04;;;;;;;50.30;34.03;;;6.10;82.20;;;;;;4591890;28;20432;-77
2020/12/15 01:53:25;;;;;;;43.53;31.47;;;;;;;;;;4592635;28;20815;-76
2020/12/15 01:55:42;;;;;;;48.57;32.80;;;;;;;;;;4591843;28;20432;-77
2020/12/15 01:58:02;;;;;;;47.60;33.13;;;;;;;;;;4593923;28;20431;-76
2020/12/15 02:00:22;;;;;;;45.27;32.53;;;;;;;;;;4591498;28;20950;-77
2020/12/15 02:02:55;;;;;;;45.43;33.13;;;;;;;;;;4592664;28;20436;-75
2020/12/15 02:05:29;;;;;;;49.47;34.77;;;5.80;83.00;;;;;;4591965;28;20509;-76
2020/12/15 02:07:46;;;;;;;49.50;34.93;;;5.90;83.10;;;;;;4593366;28;20476;-78
2020/12/15 02:10:03;;;;;;;50.13;35.57;;;5.90;77.90;;;;;;4591958;28;20439;-76
2020/12/15 02:12:35;;;;;;;52.47;36.77;;;;;;;;;;4591895;28;20466;-77
2020/12/15 02:14:51;;;;;;;52.13;35.50;;;6.80;83.50;;;;;;4592548;28;20444;-75
2020/12/15 02:17:16;;;;;;;48.53;34.90;;;;;;;;;;4591575;28;20558;-77
2020/12/15 02:20:00;;;;;;;50.97;35.47;;;5.40;77.90;;;;;;4593950;28;20431;-75
2020/12/15 02:22:21;;;;;;;50.63;33.90;;;6.20;82.90;;;;;;4591413;28;20432;-77
2020/12/15 02:24:37;;;;;;;52.37;36.33;;;6.90;83.90;;;;;;4593775;28;20432;-76
2020/12/15 02:26:59;;;;;;;47.47;35.40;;;;;;;;;;4591517;28;21001;-75
2020/12/15 02:29:23;;;;;;;55.23;36.57;;;;;;;;;;4592107;28;20436;-77
2020/12/15 02:31:39;;;;;;;50.80;35.80;;;;;;;;;;4593117;28;20498;-76
2020/12/15 02:33:56;;;;;;;53.57;37.30;;;;;;;;;;4591926;28;20448;-76
2020/12/15 02:36:15;;;;;;;53.53;37.93;;;;;;;;;;4591543;28;20428;-76
2020/12/15 02:38:50;;;;;;;56.10;38.67;;;;;;;;;;4592576;28;20970;-76
2020/12/15 02:41:09;;;;;;;58.63;39.37;;;;;;;;;;4592186;28;20900;-75
2020/12/15 02:43:32;;;;;;;53.73;37.13;;;;;;;;;;4592420;28;20425;-76
2020/12/15 02:45:49;;;;;;;59.43;38.93;;;5.60;83.90;;;;;;4592386;28;20448;-76
2020/12/15 02:48:10;;;;;;;55.87;38.07;;;6.60;84.40;;;;;;4592344;28;20468;-77
2020/12/15 02:50:26;;;;;;;56.17;38.10;;;;;;;;;;4593041;28;20448;-76
2020/12/15 02:52:56;;;;;;;60.67;40.30;;;;;;;;;;4590663;28;20495;-76
2020/12/15 02:55:19;;;;;;;57.07;39.40;;;;;;;;;;4591661;28;20432;-76
2020/12/15 02:57:35;;;;;;;59.03;40.07;;;;;;;;;;4575166;28;20480;-77
2020/12/15 02:59:51;;;;;;;60.00;39.37;;;;;;;;;;4591789;28;20448;-75
2020/12/15 03:02:17;;;;;;;59.40;39.13;;;5.60;84.00;;;;;;4592789;28;20444;-76
2020/12/15 03:04:32;;;;;;;55.47;38.53;;;;;;;;;;4591492;28;20519;-76
2020/12/15 03:06:49;;;;;;;53.57;38.50;;;5.90;79.00;;;;;;4591545;28;20487;-76
2020/12/15 03:09:17;;;;;;;56.13;39.27;;;;;;;;;;4590668;28;20468;-77
2020/12/15 03:11:42;;;;;;;55.77;39.30;;;5.60;79.30;;;;;;4591818;28;20815;-76
2020/12/15 03:14:09;;;;;;;53.50;37.60;;;;;;;;;;4590770;28;20463;-76
2020/12/15 03:16:25;;;;;;;53.70;37.67;;;;;;;;;;4591682;28;20472;-76
2020/12/15 03:18:41;;;;;;;58.23;39.23;;;;;;;;;;4592129;28;20448;-75
2020/12/15 03:21:01;;;;;;;55.43;37.60;;;;;;;;;;4591744;28;20455;-77
2020/12/15 03:23:18;;;;;;;52.47;35.97;;;;;;;;;;4592194;28;20543;-75
2020/12/15 03:25:36;;;;;;;51.07;36.40;;;6.30;84.50;;;;;;4591687;28;20633;-76
2020/12/15 03:27:56;;;;;;;49.90;36.43;;;;;;;;;;4590932;28;21029;-75
2020/12/15 03:30:20;;;;;;;51.93;36.60;;;;;;;;;;4590981;28;20435;-76
2020/12/15 03:32:35;;;;;;;53.10;35.97;;;6.50;84.50;;;;;;4592546;28;20567;-77
2020/12/15 03:34:53;;;;;;;48.33;34.97;;;6.80;84.90;;;;;;4591157;28;20825;-77
2020/12/15 03:37:09;;;;;;;47.73;33.90;;;6.50;84.90;;;;;;4591132;28;20498;-76
2020/12/15 03:39:34;;;;;;;48.60;34.13;;;;;;;;;;4590605;28;20448;-77
2020/12/15 03:41:49;;;;;;;42.47;30.83;;;6.10;84.40;;;;;;4591721;28;20811;-78
2020/12/15 03:44:10;;;;;;;42.80;31.30;;;6.40;84.80;;;;;;4590083;28;20436;-78
2020/12/15 03:46:32;;;;;;;41.17;28.87;;;5.60;84.80;;;;;;4591370;28;20428;-78
2020/12/15 03:48:53;;;;;;;37.30;28.87;;;;;;;;;;4590239;28;20428;-76
2020/12/15 03:51:09;;;;;;;36.47;27.57;;;;;;;;;;4591548;28;20513;-77
2020/12/15 03:53:44;;;;;;;34.03;25.83;;;;;;;;;;4591662;28;20969;-78
2020/12/15 03:56:00;;;;;;;35.73;26.50;;;5.20;83.90;;;;;;4592769;28;20841;-79
2020/12/15 03:58:16;;;;;;;32.67;25.03;;;;;;;;;;4590635;28;20510;-76
2020/12/15 04:00:53;;;;;;;34.20;26.23;;;;;;;;;;4591884;28;20451;-78
2020/12/15 04:03:12;;;;;;;33.10;25.37;;;;;;;;;;4591566;28;20440;-76
2020/12/15 04:05:48;;;;;;;34.50;25.53;;;;;;;;;;4594533;28;20927;-77
2020/12/15 04:08:05;;;;;;;33.30;24.93;;;;;;;;;;4594643;28;20990;-76
2020/12/15 04:10:21;;;;;;;33.30;24.87;;;6.90;84.30;;;;;;4593634;28;20934;-76
2020/12/15 04:12:43;;;;;;;30.97;24.47;;;4.90;83.40;;;;;;4594706;28;20432;-77
2020/12/15 04:14:58;;;;;;;30.27;24.77;;;;;;;;;;4577833;28;20445;-77
2020/12/15 04:17:16;;;;;;;32.10;25.10;;;;;;;;;;4594109;28;20468;-77
2020/12/15 04:19:36;;;;;;;29.80;23.33;;;5.30;77.80;;;;;;4594729;28;20451;-76
2020/12/15 04:21:53;;;;;;;28.30;23.20;;;;;;;;;;4594519;28;20440;-77
2020/12/15 04:24:20;;;;;;;29.90;23.53;;;5.70;83.00;;;;;;4593793;28;20428;-78
2020/12/15 04:26:45;;;;;;;33.87;25.50;;;;;;;;;;4593783;28;20448;-77
2020/12/15 04:29:03;;;;;;;33.03;24.50;;;;;;;;;;4595512;28;20809;-77
2020/12/15 04:31:37;;;;;;;32.33;25.60;;;;;;;;;;4593321;28;20452;-77
2020/12/15 04:33:54;;;;;;;31.27;24.93;;;5.40;78.00;;;;;;4594236;28;20427;-76
2020/12/15 04:36:10;;;;;;;34.07;26.57;;;7.20;83.80;;;;;;4593088;28;20510;-76
2020/12/15 04:38:25;;;;;;;30.73;24.57;;;;;;;;;;4594552;28;20499;-76
2020/12/15 04:40:47;;;;;;;31.90;24.33;;;5.70;82.60;;;;;;4593251;28;20428;-76
2020/12/15 04:43:11;;;;;;;30.40;24.07;;;;;;;;;;4594187;28;20424;-77
2020/12/15 04:45:27;;;;;;;33.20;24.83;;;7.40;83.80;;;;;;4593126;28;20510;-76
2020/12/15 04:47:53;;;;;;;33.23;26.40;;;5.60;78.10;;;;;;4594033;28;20468;-75
2020/12/15 04:50:33;;;;;;;33.60;25.97;;;6.10;78.20;;;;;;4593190;28;20482;-75
2020/12/15 04:52:57;;;;;;;31.53;24.03;;;;;;;;;;4592888;28;20808;-76
2020/12/15 04:55:33;;;;;;;32.17;25.57;;;6.10;78.00;;;;;;4595211;28;20478;-76
2020/12/15 04:57:49;;;;;;;30.87;24.20;;;6.30;82.90;;;;;;4594498;28;20471;-76
2020/12/15 05:00:05;;;;;;;34.13;26.43;;;;;;;;;;4593962;28;20452;-77
2020/12/15 05:02:39;;;;;;;33.80;26.73;;;5.40;77.20;;;;;;4592808;28;20436;-76
2020/12/15 05:04:55;;;;;;;33.37;26.23;;;5.50;77.20;;;;;;4593921;28;20515;-77
2020/12/15 05:07:13;;;;;;;30.70;25.37;;;6.70;83.00;;;;;;4576290;28;20481;-77
2020/12/15 05:09:43;;;;;;;30.33;24.53;;;;;;;;;;4593048;28;20432;-76
2020/12/15 05:11:59;;;;;;;33.30;25.30;;;6.20;82.40;;;;;;4576538;28;20446;-76
2020/12/15 05:14:21;;;;;;;30.33;24.77;;;5.70;82.30;;;;;;4592708;28;20441;-77
2020/12/15 05:16:37;;;;;;;33.33;26.70;;;6.60;82.10;;;;;;4576154;28;21426;-76
2020/12/15 05:19:24;;;;;;;38.43;28.17;;;;;;;;;;4592428;28;20440;-77
2020/12/15 05:21:40;;;;;;;38.10;28.00;;;;;;;;;;4593214;28;20440;-76
2020/12/15 05:23:59;;;;;;;44.50;29.70;;;;;;;;;;4593386;28;20440;-78
2020/12/15 05:26:27;;;;;;;35.87;27.20;;;;;;;;;;4593020;28;20439;-76
2020/12/15 05:29:04;;;;;;;34.30;27.43;;;5.20;77.70;;;;;;4592097;28;20466;-75
2020/12/15 05:31:22;;;;;;;36.73;28.40;;;;;;;;;;4592838;28;20428;-77
2020/12/15 05:34:04;;;;;;;42.93;27.43;;;;;;;;;;4593857;28;20444;-77
2020/12/15 05:36:52;;;;;;;33.73;26.60;;;5.50;77.80;;;;;;4593400;28;20427;-76
2020/12/15 05:39:41;;;;;;;32.40;25.07;;;;;;;;;;4594266;28;20538;-76
2020/12/15 05:42:05;;;;;;;30.17;23.70;;;6.00;78.00;;;;;;4575725;28;20472;-76
2020/12/15 05:44:25;;;;;;;32.63;23.20;;;6.60;77.80;;;;;;4592861;28;20416;-77
2020/12/15 05:46:46;;;;;;;32.23;24.20;;;;;;;;;;4592320;28;20440;-76
2020/12/15 05:49:06;;;;;;;29.87;22.40;;;5.90;78.20;;;;;;4593713;28;21297;-76
2020/12/15 05:51:21;;;;;;;32.30;23.60;;;;;;;;;;4593481;28;20444;-76
2020/12/15 05:53:37;;;;;;;32.70;23.90;;;;;;;;;;4593206;28;20443;-77
2020/12/15 05:55:53;;;;;;;32.83;23.63;;;7.10;84.20;;;;;;4592343;28;20973;-76
2020/12/15 05:58:15;;;;;;;32.67;23.67;;;5.20;77.90;;;;;;4593390;28;20516;-76
2020/12/15 06:00:33;;;;;;;35.00;25.17;;;;;;;;;;4593877;28;20437;-76
2020/12/15 06:02:57;;;;;;;32.77;24.60;;;;;;;;;;4592678;28;20439;-77
2020/12/15 06:05:13;;;;;;;33.83;24.77;;;;;;;;;;4594142;28;20432;-76
2020/12/15 06:07:29;;;;;;;34.63;25.13;;;;;;;;;;4592622;28;20841;-77
2020/12/15 06:09:45;;;;;;;36.07;25.80;;;;;;;;;;4593463;28;20947;-76
2020/12/15 06:12:02;;;;;;;35.00;25.80;;;;;;;;;;4592807;28;20868;-76
2020/12/15 06:14:18;;;;;;;32.83;24.53;;;6.60;83.70;;;;;;4592419;28;20579;-77
2020/12/15 06:16:34;;;;;;;34.07;24.17;;;;;;;;;;4592547;28;20522;-76
2020/12/15 06:18:50;;;;;;;33.43;24.83;;;;;;;;;;4593230;28;20507;-75
2020/12/15 06:21:09;;;;;;;33.67;24.13;;;;;;;;;;4592632;28;20439;-77
2020/12/15 06:23:25;;;;;;;36.93;25.67;;;;;;;;;;4593114;28;20435;-76
2020/12/15 06:25:41;;;;;;;35.97;25.63;;;;;;;;;;4592223;28;20932;-76
2020/12/15 06:28:01;;;;;;;35.77;25.90;;;;;;;;;;4592628;28;20491;-77
2020/12/15 06:30:17;;;;;;;35.30;25.70;;;;;;;;;;4591136;28;20459;-76
2020/12/15 06:32:33;;;;;;;36.63;24.90;;;;;;;;;;4592659;28;20486;-77
2020/12/15 06:34:50;;;;;;;36.80;24.57;;;;;;;;;;4592562;28;20482;-76
2020/12/15 06:37:06;;;;;;;34.07;24.67;;;;;;;;;;4591950;28;20469;-76
2020/12/15 06:39:24;;;;;;;36.67;26.27;;;5.30;78.00;;;;;;4592604;28;20455;-76
2020/12/15 06:41:42;;;;;;;37.67;26.07;;;;;;;;;;4592316;28;20432;-76
2020/12/15 06:44:07;;;;;;;34.80;25.97;;;5.70;77.50;;;;;;4592483;28;20514;-74
2020/12/15 06:46:29;;;;;;;38.20;26.40;;;5.00;77.30;;;;;;4592328;28;20780;-77
2020/12/15 06:48:45;;;;;;;39.87;27.87;;;6.10;78.40;;;;;;4591648;28;20460;-75
2020/12/15 06:51:01;;;;;;;39.30;27.20;;;;;;;;;;4591035;28;20875;-76
2020/12/15 06:53:19;;;;;;;38.47;27.33;;;;;;;;;;4592591;28;20456;-75
2020/12/15 06:55:35;;;;;;;40.73;27.50;;;;;;;;;;4591675;28;20443;-78
2020/12/15 06:57:58;;;;;;;42.67;29.10;;;;;;;;;;4593308;28;20774;-80
2020/12/15 07:00:15;;;;;;;38.90;26.43;;;;;;;;;;4574730;28;20452;-77
2020/12/15 07:02:32;;;;;;;39.47;26.33;;;;;;;;;;4592275;28;20444;-80
2020/12/15 07:04:49;;;;;;;37.20;26.87;;;;;;;;;;4592444;28;20495;-83
2020/12/15 07:07:05;;;;;;;35.33;23.77;;;;;;;;;;4592584;28;20778;-80
2020/12/15 07:09:24;;;;;;;36.40;24.90;;;;;;;;;;4593346;28;20459;-85
2020/12/15 07:11:40;;;;;;;36.90;25.53;;;;;;;;;;4592440;28;20424;-86
2020/12/15 07:14:02;;;;;;;35.57;25.37;;;;;;;;;;4593291;28;20768;-82
2020/12/15 07:16:19;;;;;;;43.03;25.93;;;;;;;;;;4591498;28;20451;-83
2020/12/15 07:18:36;;;;;;;38.60;26.13;;;6.10;78.40;;;;;;4591770;28;20472;-80
2020/12/15 07:20:53;;;;;;;39.53;26.67;;;;;;;;;;4592202;28;20460;-80
2020/12/15 07:23:11;;;;;;;40.70;25.27;;;;;;;;;;4593583;28;20444;-80
2020/12/15 07:25:27;;;;;;;38.77;25.33;;;;;;;;;;4590718;28;20490;-82
2020/12/15 07:27:45;;;;;;;40.00;26.77;;;6.60;78.70;;;;;;4593410;28;20542;-84
2020/12/15 07:30:02;;;;;;;38.40;25.37;;;;;;;;;;4592299;28;20434;-80
2020/12/15 07:32:20;;;;;;;39.97;24.73;;;;;;;;;;4592815;28;20977;-81
2020/12/15 07:34:36;;;;;;;43.10;26.50;;;;;;;;;;4592267;28;20448;-80
2020/12/15 07:36:53;;;;;;;39.63;25.53;;;;;;;;;;4593374;28;20782;-81
2020/12/15 07:39:09;;;;;;;38.93;24.43;;;;;;;;;;4593924;28;20494;-83
2020/12/15 07:41:25;;;;;;;34.03;22.07;;;;;;;;;;4597563;28;20443;-80
2020/12/15 07:43:51;;;;;;;33.67;22.23;;;;;;;;;;4597746;28;20559;-85
2020/12/15 07:46:16;;;;;;;36.07;24.40;;;;;;;;;;4601745;28;21106;-83
2020/12/15 07:48:33;;;;;;;37.80;22.57;;;;;;;;;;4610387;28;20475;-85
2020/12/15 07:50:50;;;;;;;37.27;23.73;;;;;;;;;;4606907;28;20447;-78
2020/12/15 07:53:10;;;;;;;36.90;23.93;;;5.30;77.70;;;;;;4597135;28;20489;-78
2020/12/15 07:55:25;;;;;;;35.67;23.00;;;;;;;;;;4596442;28;20438;-82
2020/12/15 07:57:42;;;;;;;36.47;23.53;;;;;;;;;;4602864;28;20447;-80
2020/12/15 08:00:00;;;;;;;38.93;24.80;;;;;;;;;;4579520;28;20460;-79
2020/12/15 08:02:18;;;;;;;39.33;24.10;;;;;;;;;;4596316;28;20483;-80
2020/12/15 08:04:38;;;;;;;43.40;23.77;;;;;;;;;;4594058;28;20850;-81
2020/12/15 08:06:54;;;;;;;37.00;23.43;;;;;;;;;;4596535;28;20424;-82
2020/12/15 08:09:10;;;;;;;32.33;22.00;;;;;;;;;;4595108;28;20514;-81
2020/12/15 08:11:27;;;;;;;35.67;23.37;;;;;;;;;;4595787;28;20447;-80
2020/12/15 08:13:43;;;;;;;35.07;22.17;;;;;;;;;;4594520;28;20889;-80
2020/12/15 08:15:59;;;;;;;37.60;24.57;;;;;;;;;;4595690;28;20471;-78
2020/12/15 08:18:18;;;;;;;37.67;24.23;;;;;;;;;;4594753;28;20455;-84
2020/12/15 08:20:36;;;;;;;37.80;24.03;;;;;;;;;;4580217;28;20441;-85
2020/12/15 08:23:03;;;;;;;37.67;23.50;;;;;;;;;;4597504;28;20442;-88
2020/12/15 08:25:21;;;;;;;41.63;25.20;;;;;;;;;;4598374;28;20535;-85
2020/12/15 08:27:40;;;;;;;42.77;25.07;;;;;;;;;;4594637;28;20916;-84
2020/12/15 08:29:56;;;;;;;34.80;22.83;;;;;;;;;;4597336;28;20511;-88
2020/12/15 08:32:13;;;;;;;36.10;23.60;;;;;;;;;;4597011;28;20440;-87
2020/12/15 08:34:30;;;;;;;38.83;24.27;;;;;;;;;;4596559;28;20440;-84
2020/12/15 08:36:48;;;;;;;33.30;22.00;;;;;;;;;;4594537;28;20535;-85
2020/12/15 08:39:06;;;;;;;27.17;18.20;;;;;;;;;;4594207;28;20660;-81
2020/12/15 08:41:23;;;;;;;27.60;18.63;;;;;;;;;;4599145;28;20446;-82
2020/12/15 08:43:39;;;;;;;29.80;19.00;;;;;;;;;;4594570;28;20942;-82
2020/12/15 08:45:59;;;;;;;32.50;20.00;;;;;;;;;;4596688;28;20439;-83
2020/12/15 08:48:17;;;;;;;31.10;20.20;;;;;;;;;;4596449;28;20490;-82
2020/12/15 08:50:33;;;;;;;36.00;22.10;;;6.90;83.70;;;;;;4596831;28;20523;-85
2020/12/15 08:53:06;;;;;;;34.47;21.60;;;;;;;;;;4561421;28;20461;-83
2020/12/15 08:55:28;;;;;;;30.97;20.10;;;;;;;;;;4560048;28;20537;-86
2020/12/15 08:57:44;;;;;;;37.80;23.80;;;;;;;;;;4578867;28;20823;-87
2020/12/15 09:00:11;;;;;;;31.83;20.50;;;;;;;;;;4578151;28;20441;-81
2020/12/15 09:02:27;;;;;;;31.07;20.17;;;;;;;;;;4577242;28;20437;-85
2020/12/15 09:04:47;;;;;;;30.90;19.67;;;;;;;;;;4577411;28;20437;-87
2020/12/15 09:07:11;;;;;;;31.47;20.77;;;6.20;78.50;;;;;;4575980;28;20842;-80
2020/12/15 09:09:32;;;;;;;31.60;21.10;;;;;;;;;;4576180;28;20472;-85
2020/12/15 09:11:54;;;;;;;32.40;20.23;;;6.30;78.50;;;;;;4577188;28;20485;-81
2020/12/15 09:14:16;;;;;;;31.33;19.30;;;;;;;;;;4578535;28;20520;-84
2020/12/15 09:16:33;;;;;;;30.93;18.50;;;;;;;;;;4575553;28;20820;-82
2020/12/15 09:18:50;;;;;;;31.37;20.53;;;;;;;;;;4579546;28;20504;-80
2020/12/15 09:21:10;;;;;;;29.60;20.37;;;5.00;77.30;;;;;;4592776;28;20536;-81
2020/12/15 09:23:27;;;;;;;31.77;19.93;;;;;;;;;;4592916;28;20424;-79
2020/12/15 09:25:45;;;;;;;28.23;18.23;;;;;;;;;;4594791;28;20440;-78
2020/12/15 09:28:01;;;;;;;36.70;19.07;;;;;;;;;;4593716;28;20598;-80
2020/12/15 09:30:19;;;;;;;29.17;19.20;;;;;;;;;;4594480;28;20455;-78
2020/12/15 09:32:35;;;;;;;32.03;19.27;;;;;;;;;;4592445;28;20480;-80
2020/12/15 09:34:52;;;;;;;28.07;18.37;;;;;;;;;;4599410;28;20919;-82
2020/12/15 09:37:09;;;;;;;29.27;18.97;;;;;;;;;;4600754;28;20474;-82
2020/12/15 09:39:26;;;;;;;30.90;19.67;;;;;;;;;;4601922;28;20515;-81
2020/12/15 09:41:43;;;;;;;29.17;19.47;;;;;;;;;;4595557;28;20917;-80
2020/12/15 09:44:00;;;;;;;33.50;19.60;;;;;;;;;;4594764;28;20520;-79
2020/12/15 09:46:17;;;;;;;30.17;19.93;;;;;;;;;;4592763;28;20534;-81
2020/12/15 09:48:34;;;;;;;34.70;19.50;;;;;;;;;;4595682;28;20470;-81
2020/12/15 09:50:52;;;;;;;31.30;19.97;;;;;;;;;;4592754;28;20467;-77
2020/12/15 09:53:09;;;;;;;30.13;19.77;;;6.10;83.10;;;;;;4591590;28;20527;-79
2020/12/15 09:55:26;;;;;;;32.57;22.20;;;;;;;;;;4592451;28;20451;-80
2020/12/15 09:57:49;;;;;;;29.63;18.97;;;;;;;;;;4591641;28;20442;-78
2020/12/15 10:00:06;;;;;;;26.90;18.20;;;;;;;;;;4594130;28;20836;-78
2020/12/15 10:02:23;;;;;;;27.23;17.07;;;;;;;;;;4591509;28;20444;-82
2020/12/15 10:04:39;;;;;;;24.33;17.27;;;;;;;;;;4594538;28;20444;-81
2020/12/15 10:06:55;;;;;;;31.03;18.00;;;;;;;;;;4592529;28;20448;-85
2020/12/15 10:09:13;;;;;;;29.17;18.20;;;;;;;;;;4593330;28;20476;-83
2020/12/15 10:11:29;;;;;;;26.70;18.17;;;;;;;;;;4592019;28;20463;-81
2020/12/15 10:13:47;;;;;;;29.97;18.33;;;;;;;;;;4592853;28;20797;-81
2020/12/15 10:16:03;;;;;;;31.03;18.73;;;;;;;;;;4592707;28;20440;-83
2020/12/15 10:18:20;;;;;;;28.90;18.93;;;;;;;;;;4592567;28;20467;-82
2020/12/15 10:20:36;;;;;;;31.57;18.53;;;;;;;;;;4592447;28;20452;-79
2020/12/15 10:22:53;;;;;;;27.30;18.37;;;;;;;;;;4592308;28;20451;-83
2020/12/15 10:25:09;;;;;;;35.00;19.97;;;;;;;;;;4592796;28;20472;-78
2020/12/15 10:27:25;;;;;;;28.70;18.70;;;;;;;;;;4592639;28;20450;-78
2020/12/15 10:29:41;;;;;;;30.67;19.43;;;;;;;;;;4592300;28;20475;-79
2020/12/15 10:31:57;;;;;;;35.83;19.80;;;;;;;;;;4591007;28;20436;-79
2020/12/15 10:34:14;;;;;;;32.97;19.70;;;;;;;;;;4592548;28;20475;-79
2020/12/15 10:36:31;;;;;;;33.30;20.07;;;;;;;;;;4592548;28;20471;-80
2020/12/15 10:38:47;;;;;;;30.73;20.13;;;;;;;;;;4592660;28;20483;-80
2020/12/15 10:41:03;;;;;;;30.03;20.17;;;6.00;81.70;;;;;;4590985;28;20826;-78
2020/12/15 10:43:19;;;;;;;30.50;19.67;;;;;;;;;;4591471;28;20498;-81
2020/12/15 10:45:36;;;;;;;30.37;19.90;;;;;;;;;;4591781;28;20447;-79
2020/12/15 10:47:53;;;;;;;28.10;18.80;;;;;;;;;;4593377;28;20475;-80
2020/12/15 10:50:10;;;;;;;31.30;19.63;;;;;;;;;;4591551;28;20819;-84
2020/12/15 10:52:27;;;;;;;33.47;18.73;;;;;;;;;;4594074;28;20451;-87
2020/12/15 10:54:43;;;;;;;32.60;19.60;;;;;;;;;;4598108;28;21005;-88
2020/12/15 10:57:00;;;;;;;28.80;19.17;;;;;;;;;;4600367;28;20432;-86
2020/12/15 10:59:16;;;;;;;27.27;17.97;;;;;;;;;;4595119;28;20440;-83
2020/12/15 11:01:35;;;;;;;25.10;17.30;;;;;;;;;;4606923;28;20459;-85
2020/12/15 11:03:52;;;;;;;28.77;16.97;;;;;;;;;;4598203;28;20490;-83
2020/12/15 11:06:08;;;;;;;25.90;16.57;;;;;;;;;;4600348;28;20471;-84
2020/12/15 11:08:24;;;;;;;25.87;16.73;;;;;;;;;;4597012;28;20484;-86
2020/12/15 11:10:41;;;;;;;27.03;16.77;;;;;;;;;;4597139;28;20531;-80
2020/12/15 11:13:00;;;;;;;25.30;16.37;;;;;;;;;;4591998;28;20829;-81
2020/12/15 11:15:16;;;;;;;23.20;15.10;;;;;;;;;;4594957;28;20828;-83
2020/12/15 11:17:33;;;;;;;22.73;15.10;;;;;;;;;;4594862;28;20534;-85
2020/12/15 11:19:50;;;;;;;26.87;17.17;;;;;;;;;;4597852;28;20434;-83
2020/12/15 11:22:06;;;;;;;21.57;14.70;;;;;;;;;;4597508;28;20466;-80
2020/12/15 11:24:22;;;;;;;24.63;16.47;;;;;;;;;;4597262;28;20440;-79
2020/12/15 11:26:42;;;;;;;21.67;14.43;;;;;;;;;;4595674;28;20452;-81
2020/12/15 11:28:58;;;;;;;21.50;14.70;;;;;;;;;;4595908;28;20486;-81
2020/12/15 11:31:15;;;;;;;21.77;14.37;;;;;;;;;;4596216;28;20444;-79
2020/12/15 11:33:32;;;;;;;19.50;13.63;;;;;;;;;;4595478;28;20446;-81
2020/12/15 11:35:50;;;;;;;19.80;13.00;;;;;;;;;;4594823;28;20936;-79
2020/12/15 11:38:06;;;;;;;19.27;13.23;;;;;;;;;;4593177;28;20444;-79
2020/12/15 11:40:23;;;;;;;17.17;11.50;;;;;;;;;;4594883;28;20450;-80
2020/12/15 11:42:39;;;;;;;15.83;9.07;;;;;;;;;;4593301;28;20816;-81
2020/12/15 11:44:56;;;;;;;17.57;11.80;;;;;;;;;;4596310;28;20448;-81
2020/12/15 11:47:12;;;;;;;18.47;11.93;;;;;;;;;;4593731;28;20614;-82
2020/12/15 11:49:30;;;;;;;19.10;13.30;;;;;;;;;;4594540;28;20483;-77
2020/12/15 11:51:46;;;;;;;18.73;12.10;;;;;;;;;;4595570;28;20509;-78
2020/12/15 11:54:03;;;;;;;17.53;11.40;;;;;;;;;;4596953;28;20475;-78
2020/12/15 11:56:20;;;;;;;15.80;11.83;;;;;;;;;;4594809;28;20919;-80
2020/12/15 11:58:36;;;;;;;16.97;11.70;;;;;;;;;;4595997;28;20549;-78
2020/12/15 12:00:55;;;;;;;17.17;11.13;;;;;;;;;;4595788;28;20532;-81
2020/12/15 12:03:12;;;;;;;15.27;9.63;;;;;;;;;;4595645;28;20439;-77
2020/12/15 12:05:29;;;;;;;14.30;9.83;;;6.10;81.10;;;;;;4594899;28;20460;-78
2020/12/15 12:07:46;;;;;;;13.93;9.70;;;;;;;;;;4595864;28;20490;-79
2020/12/15 12:10:02;;;;;;;15.93;10.30;;;;;;;;;;4594910;28;20480;-81
2020/12/15 12:12:19;;;;;;;14.97;10.40;;;;;;;;;;4595129;28;20996;-80
2020/12/15 12:14:36;;;;;;;16.03;10.83;;;;;;;;;;4595441;28;20444;-76
2020/12/15 12:17:07;;;;;;;15.60;10.63;;;;;;;;;;4594413;28;20541;-76
2020/12/15 12:19:23;;;;;;;14.33;10.50;;;;;;;;;;4595260;28;20431;-77
2020/12/15 12:21:40;;;;;;;17.13;11.03;;;;;;;;;;4594288;28;20930;-80
2020/12/15 12:23:56;;;;;;;18.67;11.77;;;;;;;;;;4594670;28;20502;-79
2020/12/15 12:26:15;;;;;;;16.83;11.37;;;;;;;;;;4592965;28;20440;-78
2020/12/15 12:28:31;;;;;;;19.23;11.73;;;6.40;81.30;;;;;;4594908;28;20471;-78
2020/12/15 12:30:47;;;;;;;18.53;12.43;;;7.20;81.70;;;;;;4576412;28;20603;-80
2020/12/15 12:33:03;;;;;;;21.13;13.67;;;;;;;;;;4595214;28;20857;-81
2020/12/15 12:35:20;;;;;;;20.37;13.13;;;;;;;;;;4594209;28;20494;-78
2020/12/15 12:37:36;;;;;;;21.37;13.90;;;;;;;;;;4595189;28;20432;-77
2020/12/15 12:39:52;;;;;;;20.93;13.20;;;;;;;;;;4592208;28;20469;-79
2020/12/15 12:42:08;;;;;;;21.40;13.63;;;;;;;;;;4594892;28;20452;-79
2020/12/15 12:44:24;;;;;;;24.60;14.93;;;7.30;82.40;;;;;;4594255;28;20511;-81
2020/12/15 12:46:40;;;;;;;23.97;15.33;;;;;;;;;;4595747;28;20531;-80
2020/12/15 12:48:56;;;;;;;24.77;15.30;;;;;;;;;;4593092;28;20567;-84
2020/12/15 12:51:16;;;;;;;25.17;14.20;;;5.00;78.00;;;;;;4594177;28;20529;-80
2020/12/15 12:53:33;;;;;;;18.77;12.30;;;;;;;;;;4593313;28;20432;-83
2020/12/15 12:55:50;;;;;;;18.53;10.73;;;;;;;;;;4595438;28;20436;-83
2020/12/15 12:58:10;;;;;;;18.27;12.73;;;6.90;79.30;;;;;;4593650;28;20444;-88
2020/12/15 13:00:27;;;;;;;15.70;10.53;;;;;;;;;;4577560;28;20460;-83
2020/12/15 13:02:44;;;;;;;18.87;11.07;;;;;;;;;;4593597;28;20464;-79
2020/12/15 13:05:00;;;;;;;15.50;10.50;;;7.60;83.30;;;;;;4593945;28;20474;-81